Time;durP1;ratioP1;P1;durP2;ratioP2;P2;SDS_P1;SDS_P2;PMS_P1;PMS_P2;Temp;Humidity;BMP_temperature;BMP_pressure;BME280_temperature;BME280_humidity;BME280_pressure;Samples;Min_cycle;Max_cycle;Signal;HPM_P1;HPM_P2
2023/04/11 00:01:34;;;;;;;25.38;13.38;;;;;;;11.09;87.40;100776.16;5093765;28;20024;-44
2023/04/11 00:03:59;;;;;;;24.90;13.20;;;;;;;11.07;87.34;100775.66;5093730;28;20035;-44
2023/04/11 00:06:25;;;;;;;24.15;14.30;;;;;;;11.08;87.57;100780.88;5093462;28;20020;-44
2023/04/11 00:08:50;;;;;;;23.15;13.20;;;;;;;11.06;87.28;100772.03;5093554;28;20070;-45
2023/04/11 00:11:16;;;;;;;27.55;14.10;;;;;;;11.06;87.06;100776.78;5093593;28;20089;-46
2023/04/11 00:13:42;;;;;;;25.70;13.68;;;;;;;11.03;86.74;100772.69;5093362;28;20063;-44
2023/04/11 00:16:08;;;;;;;27.48;14.15;;;;;;;11.02;86.52;100775.75;5093503;28;20036;-45
2023/04/11 00:18:36;;;;;;;27.10;13.57;;;;;;;10.95;86.89;100767.88;5093356;28;20442;-44
2023/04/11 00:21:02;;;;;;;26.90;14.73;;;;;;;10.92;86.54;100771.28;5093355;28;20124;-45
2023/04/11 00:23:28;;;;;;;26.13;14.02;;;;;;;10.93;86.28;100772.91;5093282;28;20028;-45
2023/04/11 00:25:53;;;;;;;30.13;14.45;;;;;;;10.92;86.14;100777.59;5093159;28;20035;-45
2023/04/11 00:28:18;;;;;;;23.02;14.30;;;;;;;10.91;86.50;100784.28;5093199;28;20020;-46
2023/04/11 00:30:44;;;;;;;26.33;13.85;;;;;;;10.87;86.40;100780.50;5093129;28;20640;-47
2023/04/11 00:33:09;;;;;;;26.25;13.85;;;;;;;10.86;86.65;100783.59;5093216;28;20040;-46
2023/04/11 00:35:36;;;;;;;29.13;15.32;;;;;;;10.83;86.51;100781.44;5090484;28;20048;-43
2023/04/11 00:38:02;;;;;;;31.17;14.90;;;;;;;10.75;86.50;100783.81;5091497;28;20024;-46
2023/04/11 00:40:28;;;;;;;27.33;14.00;;;;;;;10.69;86.75;100785.00;5093127;28;20060;-47
2023/04/11 00:42:55;;;;;;;28.05;14.35;;;;;;;10.63;87.09;100775.19;5092877;28;20059;-46
2023/04/11 00:45:20;;;;;;;29.27;14.50;;;;;;;10.66;87.31;100791.19;5092807;28;20055;-46
2023/04/11 00:47:46;;;;;;;28.48;14.60;;;;;;;10.62;87.54;100792.91;5092583;28;20441;-44
2023/04/11 00:50:12;;;;;;;32.58;15.48;;;;;;;10.56;87.01;100777.56;5092729;28;20077;-48
2023/04/11 00:52:38;;;;;;;30.67;14.80;;;;;;;10.57;87.07;100788.31;5092629;28;20024;-46
2023/04/11 00:55:05;;;;;;;28.45;13.85;;;;;;;10.51;88.05;100792.31;5092722;28;20172;-48
2023/04/11 00:57:31;;;;;;;29.38;15.23;;;;;;;10.49;87.94;100794.56;5092896;28;20495;-45
2023/04/11 00:59:57;;;;;;;30.10;15.52;;;;;;;10.48;87.86;100784.63;5092207;28;20481;-47
2023/04/11 01:02:23;;;;;;;27.73;15.13;;;;;;;10.46;87.38;100795.16;5091176;28;20119;-48
2023/04/11 01:04:49;;;;;;;27.88;14.40;;;;;;;10.42;87.69;100797.72;5092449;28;20048;-47
2023/04/11 01:07:17;;;;;;;31.17;15.85;;;;;;;10.31;87.24;100782.41;5092219;28;20052;-45
2023/04/11 01:09:44;;;;;;;29.17;15.05;;;;;;;10.40;88.39;100790.88;5092413;28;20058;-48
2023/04/11 01:12:10;;;;;;;29.05;15.75;;;;;;;10.38;88.31;100793.13;5092380;28;20120;-47
2023/04/11 01:14:36;;;;;;;29.17;15.30;;;;;;;10.38;88.30;100788.41;5092402;28;20021;-47
2023/04/11 01:17:01;;;;;;;29.92;14.88;;;;;;;10.39;88.09;100792.78;5092355;28;20030;-48
2023/04/11 01:19:27;;;;;;;29.02;15.15;;;;;;;10.38;88.16;100801.41;5092304;28;20028;-47
2023/04/11 01:21:56;;;;;;;27.05;15.35;;;;;;;10.34;88.53;100781.00;5092134;28;20036;-47
2023/04/11 01:24:21;;;;;;;27.00;14.70;;;;;;;10.34;88.16;100781.00;5092428;28;20024;-47
2023/04/11 01:26:47;;;;;;;28.55;14.80;;;;;;;10.36;88.48;100782.34;5092085;28;20488;-48
2023/04/11 01:29:12;;;;;;;28.20;14.40;;;;;;;10.23;88.25;100763.78;5092112;28;20122;-44
2023/04/11 01:31:38;;;;;;;30.20;14.73;;;;;;;10.37;89.17;100789.53;5092080;28;20092;-45
2023/04/11 01:34:04;;;;;;;32.50;14.77;;;;;;;10.34;87.83;100790.13;5091865;28;20504;-45
2023/04/11 01:36:30;;;;;;;29.48;14.80;;;;;;;10.35;89.14;100796.44;5087783;28;20028;-44
2023/04/11 01:38:55;;;;;;;27.95;14.52;;;;;;;10.35;87.88;100791.75;5091897;28;20052;-44
2023/04/11 01:41:23;;;;;;;27.83;14.45;;;;;;;10.34;87.56;100795.66;5091894;28;20104;-44
2023/04/11 01:43:49;;;;;;;27.23;16.05;;;;;;;10.31;87.85;100782.41;5091948;28;20035;-44
2023/04/11 01:46:15;;;;;;;29.38;15.02;;;;;;;10.29;88.08;100798.53;5092000;28;20064;-47
2023/04/11 01:48:41;;;;;;;30.17;15.32;;;;;;;10.29;88.89;100806.81;5091999;28;20077;-46
2023/04/11 01:51:07;;;;;;;29.95;14.77;;;;;;;10.24;87.37;100804.13;5090465;28;20020;-44
2023/04/11 01:53:32;;;;;;;28.27;15.20;;;;;;;10.27;88.59;100814.59;5092123;28;20614;-45
2023/04/11 01:55:57;;;;;;;28.42;14.30;;;;;;;10.24;88.58;100815.19;5091866;28;20040;-46
2023/04/11 01:58:23;;;;;;;28.13;14.68;;;;;;;10.24;88.47;100818.78;5092851;28;20407;-44
2023/04/11 02:00:48;;;;;;;29.10;15.05;;;;;;;10.22;87.91;100822.97;5095889;28;20540;-46
2023/04/11 02:03:13;;;;;;;30.83;15.02;;;;;;;10.16;87.69;100819.47;5096011;28;20077;-45
2023/04/11 02:05:38;;;;;;;26.15;14.07;;;;;;;10.15;88.39;100829.72;5095939;28;20025;-47
2023/04/11 02:08:04;;;;;;;31.83;15.25;;;;;;;10.13;88.50;100828.38;5095936;28;20024;-44
2023/04/11 02:10:29;;;;;;;31.25;15.05;;;;;;;10.10;88.40;100829.81;5095920;28;20028;-44
2023/04/11 02:12:54;;;;;;;29.83;14.95;;;;;;;10.09;88.80;100830.94;5095835;28;20105;-48
2023/04/11 02:15:20;;;;;;;29.45;14.15;;;;;;;10.09;88.78;100830.09;5095693;28;20157;-43
2023/04/11 02:17:45;;;;;;;28.38;14.68;;;;;;;10.07;88.24;100833.19;5095950;28;20108;-47
2023/04/11 02:20:12;;;;;;;33.53;14.50;;;;;;;10.06;88.70;100833.50;5096170;28;20035;-44
2023/04/11 02:22:37;;;;;;;27.67;14.50;;;;;;;10.04;88.80;100830.22;5096255;28;20089;-45
2023/04/11 02:25:03;;;;;;;31.50;14.68;;;;;;;10.03;88.78;100834.91;5095794;28;20032;-45
2023/04/11 02:27:28;;;;;;;31.00;14.73;;;;;;;10.01;88.74;100828.03;5095501;28;20119;-45
2023/04/11 02:29:53;;;;;;;30.15;14.18;;;;;;;10.01;88.42;100834.41;5095589;28;20021;-44
2023/04/11 02:32:21;;;;;;;31.10;15.20;;;;;;;10.00;88.59;100846.56;5095488;28;20062;-47
2023/04/11 02:34:46;;;;;;;29.52;14.75;;;;;;;10.01;88.62;100833.56;5095597;28;20024;-48
2023/04/11 02:37:12;;;;;;;29.75;14.32;;;;;;;10.01;88.48;100834.41;5092295;28;20206;-44
2023/04/11 02:39:37;;;;;;;32.03;14.25;;;;;;;9.97;87.99;100836.13;5094956;28;20080;-46
2023/04/11 02:42:02;;;;;;;27.40;13.80;;;;;;;9.97;88.89;100836.13;5095208;28;20044;-45
2023/04/11 02:44:29;;;;;;;32.10;14.52;;;;;;;9.96;88.13;100842.75;5093873;28;20063;-47
2023/04/11 02:46:56;;;;;;;32.17;14.95;;;;;;;9.91;88.40;100834.56;5093726;28;20034;-47
2023/04/11 02:49:21;;;;;;;25.75;13.13;;;;;;;9.92;88.17;100841.75;5095028;28;20028;-46
2023/04/11 02:51:47;;;;;;;29.63;14.02;;;;;;;9.90;88.23;100844.78;5095016;28;20031;-45
2023/04/11 02:54:12;;;;;;;28.52;13.98;;;;;;;9.91;87.91;100851.16;5094972;28;20028;-47
2023/04/11 02:56:37;;;;;;;25.08;13.65;;;;;;;9.89;88.02;100843.16;5094914;28;20674;-45
2023/04/11 02:59:05;;;;;;;27.55;13.68;;;;;;;9.85;87.88;100842.13;5095070;28;20031;-47
2023/04/11 03:01:30;;;;;;;28.98;13.93;;;;;;;9.85;87.24;100850.41;5094783;28;20062;-48
2023/04/11 03:03:55;;;;;;;25.60;13.45;;;;;;;9.81;86.93;100852.97;5094797;28;20052;-47
2023/04/11 03:06:22;;;;;;;25.48;13.95;;;;;;;9.77;87.43;100854.66;5094677;28;20480;-47
2023/04/11 03:08:48;;;;;;;26.40;13.27;;;;;;;9.76;87.63;100853.03;5094949;28;20135;-45
2023/04/11 03:11:14;;;;;;;27.48;13.65;;;;;;;9.74;86.73;100855.25;5094606;28;20051;-45
2023/04/11 03:13:40;;;;;;;26.83;13.25;;;;;;;9.71;87.07;100841.22;5094733;28;20482;-44
2023/04/11 03:16:06;;;;;;;27.77;13.70;;;;;;;9.71;86.39;100864.16;5093306;28;20024;-48
2023/04/11 03:18:31;;;;;;;26.08;13.30;;;;;;;9.66;85.51;100851.25;5094554;28;20036;-45
2023/04/11 03:20:56;;;;;;;28.13;13.63;;;;;;;9.66;86.60;100858.72;5094284;28;20031;-46
2023/04/11 03:23:21;;;;;;;23.52;13.10;;;;;;;9.64;86.82;100864.53;5094349;28;20020;-47
2023/04/11 03:25:47;;;;;;;23.20;12.90;;;;;;;9.57;85.61;100874.31;5094233;28;20036;-44
2023/04/11 03:28:13;;;;;;;26.50;12.65;;;;;;;9.55;86.14;100876.53;5094167;28;20031;-47
2023/04/11 03:30:41;;;;;;;27.90;12.77;;;;;;;9.53;86.87;100879.63;5094299;28;20066;-45
2023/04/11 03:33:06;;;;;;;23.15;12.63;;;;;;;9.50;87.89;100883.78;5094316;28;20031;-48
2023/04/11 03:35:32;;;;;;;26.60;13.88;;;;;;;9.52;87.84;100887.09;5092270;28;20017;-42
2023/04/11 03:37:57;;;;;;;28.88;13.40;;;;;;;9.53;87.62;100890.66;5091430;28;20028;-46
2023/04/11 03:40:23;;;;;;;23.48;12.98;;;;;;;9.51;87.19;100885.44;5094340;28;20048;-45
2023/04/11 03:42:49;;;;;;;24.20;13.05;;;;;;;9.55;87.86;100895.88;5093975;28;20044;-44
2023/04/11 03:45:14;;;;;;;24.05;12.43;;;;;;;9.55;87.32;100890.34;5094299;28;20115;-46
2023/04/11 03:47:40;;;;;;;25.17;12.65;;;;;;;9.58;87.02;100881.47;5093858;28;20381;-45
2023/04/11 03:50:06;;;;;;;24.33;12.18;;;;;;;9.64;86.34;100885.78;5089029;28;20042;-47
2023/04/11 03:52:32;;;;;;;23.30;12.40;;;;;;;9.61;85.61;100891.94;5073405;28;20409;-44
2023/04/11 03:54:57;;;;;;;24.17;12.45;;;;;;;9.54;85.73;100884.03;5073703;28;20033;-46
2023/04/11 03:57:25;;;;;;;22.33;11.90;;;;;;;9.62;84.69;100893.59;5073582;28;20543;-46
2023/04/11 03:59:51;;;;;;;26.80;12.70;;;;;;;9.63;85.03;100896.03;5073658;28;20087;-47
2023/04/11 04:02:16;;;;;;;24.35;12.38;;;;;;;9.66;84.99;100905.66;5073485;28;20029;-47
2023/04/11 04:04:45;;;;;;;22.05;11.75;;;;;;;9.68;85.00;100906.19;5073411;28;20031;-46
2023/04/11 04:07:11;;;;;;;25.13;12.30;;;;;;;9.68;84.37;100911.72;5073365;28;20390;-44
2023/04/11 04:09:37;;;;;;;24.83;12.25;;;;;;;9.66;84.70;100903.75;5073436;28;20470;-45
2023/04/11 04:12:02;;;;;;;22.40;12.60;;;;;;;9.68;85.51;100907.00;5073134;28;20067;-46
2023/04/11 04:14:28;;;;;;;24.70;12.90;;;;;;;9.66;85.24;100902.91;5073040;28;20029;-45
2023/04/11 04:16:53;;;;;;;25.40;12.75;;;;;;;9.64;84.25;100905.97;5073103;28;20123;-45
2023/04/11 04:19:18;;;;;;;23.15;13.32;;;;;;;9.66;85.81;100913.94;5073161;28;20059;-46
2023/04/11 04:21:44;;;;;;;22.67;12.63;;;;;;;9.62;84.64;100905.44;5071231;28;20032;-45
2023/04/11 04:24:11;;;;;;;20.33;11.95;;;;;;;9.65;85.35;100906.78;5072744;28;20055;-48
2023/04/11 04:26:37;;;;;;;23.63;12.02;;;;;;;9.59;85.34;100913.50;5072958;28;20028;-45
2023/04/11 04:29:05;;;;;;;24.17;12.52;;;;;;;9.58;84.41;100912.69;5073124;28;20040;-47
2023/04/11 04:31:32;;;;;;;23.08;12.65;;;;;;;9.49;83.89;100906.19;5073079;28;20077;-48
2023/04/11 04:34:07;;;;;;;21.70;11.82;;;;;;;9.52;85.26;100919.38;5072982;28;20363;-47
2023/04/11 04:36:46;;;;;;;22.05;12.15;;;;;;;9.54;84.99;100922.69;5070187;28;20467;-44
2023/04/11 04:39:16;;;;;;;23.30;13.00;;;;;;;9.51;84.57;100926.88;5072722;28;20576;-46
2023/04/11 04:41:47;;;;;;;23.55;11.93;;;;;;;9.42;83.97;100931.41;5072806;28;20020;-44
2023/04/11 04:44:14;;;;;;;22.33;12.35;;;;;;;9.43;84.33;100938.56;5072899;28;20056;-46
2023/04/11 04:46:39;;;;;;;22.60;12.02;;;;;;;9.37;83.55;100931.47;5072800;28;20059;-47
2023/04/11 04:49:06;;;;;;;21.75;12.32;;;;;;;9.36;84.92;100944.47;5072631;28;20536;-47
2023/04/11 04:51:31;;;;;;;22.27;12.13;;;;;;;9.30;83.75;100939.28;5072232;28;20029;-47
2023/04/11 04:53:56;;;;;;;20.30;12.30;;;;;;;9.25;84.06;100944.88;5072667;28;20099;-47
2023/04/11 04:56:22;;;;;;;22.35;12.15;;;;;;;9.29;85.12;100959.72;5071405;28;20478;-47
2023/04/11 04:58:48;;;;;;;23.88;13.35;;;;;;;9.23;84.06;100963.69;5072429;28;20081;-45
2023/04/11 05:01:13;;;;;;;23.55;12.40;;;;;;;9.21;84.89;100963.94;5072435;28;20385;-47
2023/04/11 05:03:38;;;;;;;24.30;12.40;;;;;;;9.20;85.43;100967.84;5072649;28;20427;-47
2023/04/11 05:06:05;;;;;;;24.65;12.82;;;;;;;9.15;84.80;100973.41;5072667;28;20032;-44
2023/04/11 05:08:30;;;;;;;23.90;12.60;;;;;;;9.13;85.19;100976.47;5072544;28;20050;-45
2023/04/11 05:10:56;;;;;;;22.25;11.90;;;;;;;9.12;85.19;100977.59;5072291;28;20032;-44
2023/04/11 05:13:21;;;;;;;23.23;12.07;;;;;;;9.08;84.82;100976.53;5072320;28;20429;-47
2023/04/11 05:15:48;;;;;;;22.83;11.43;;;;;;;9.01;84.84;100981.56;5072117;28;20399;-45
2023/04/11 05:18:13;;;;;;;21.05;11.77;;;;;;;9.09;85.76;100985.63;5072483;28;20040;-48
2023/04/11 05:20:38;;;;;;;21.67;11.43;;;;;;;9.08;84.77;100981.22;5077608;28;20483;-46
2023/04/11 05:23:04;;;;;;;23.65;11.10;;;;;;;9.09;84.52;100983.69;5083823;28;20020;-45
2023/04/11 05:25:29;;;;;;;21.83;11.10;;;;;;;9.08;84.21;100987.56;5072117;28;20107;-45
2023/04/11 05:27:54;;;;;;;24.70;12.10;;;;;;;9.09;84.41;100999.44;5072110;28;20024;-45
2023/04/11 05:30:20;;;;;;;25.23;12.48;;;;;;;9.14;85.79;100997.44;5072050;28;20028;-47
2023/04/11 05:32:45;;;;;;;24.00;12.65;;;;;;;9.18;86.08;100989.41;5071555;28;20036;-47
2023/04/11 05:35:10;;;;;;;23.40;11.50;;;;;;;9.28;86.90;101005.00;5068203;28;20089;-47
2023/04/11 05:37:36;;;;;;;22.00;11.70;;;;;;;9.25;84.31;101003.66;5072353;28;20051;-44
2023/04/11 05:40:01;;;;;;;21.75;11.57;;;;;;;9.26;84.69;100999.78;5071677;28;20044;-48
2023/04/11 05:42:26;;;;;;;22.52;11.52;;;;;;;9.31;85.95;101001.66;5087507;28;20035;-44
2023/04/11 05:44:52;;;;;;;21.85;11.85;;;;;;;9.34;85.57;101007.44;5072068;28;20076;-46
2023/04/11 05:47:17;;;;;;;25.73;12.10;;;;;;;9.38;85.07;101013.19;5067891;28;20029;-48
2023/04/11 05:49:42;;;;;;;22.90;11.55;;;;;;;9.36;84.78;101018.16;5071978;28;20035;-47
2023/04/11 05:52:07;;;;;;;21.05;11.77;;;;;;;9.45;86.07;101030.22;5071924;28;20486;-45
2023/04/11 05:54:35;;;;;;;25.38;11.80;;;;;;;9.50;84.82;101021.03;5071655;28;20024;-44
2023/04/11 05:57:01;;;;;;;22.65;12.25;;;;;;;9.61;85.16;101030.03;5071707;28;20036;-45
2023/04/11 05:59:29;;;;;;;24.48;12.00;;;;;;;9.68;85.24;101044.31;5071921;28;20028;-44
2023/04/11 06:01:55;;;;;;;26.05;12.50;;;;;;;9.80;85.63;101043.88;5071878;28;20028;-43
2023/04/11 06:04:20;;;;;;;22.23;11.57;;;;;;;9.95;86.17;101042.84;5071739;28;20393;-43
2023/04/11 06:06:46;;;;;;;25.33;11.38;;;;;;;10.09;86.01;101043.78;5071545;28;20511;-46
2023/04/11 06:09:12;;;;;;;23.52;11.82;;;;;;;10.83;92.54;101049.88;5069844;28;20394;-44
2023/04/11 06:11:37;;;;;;;25.15;12.02;;;;;;;10.96;81.95;101049.06;5070706;28;20052;-44
2023/04/11 06:14:03;;;;;;;22.05;11.50;;;;;;;10.99;79.56;101058.75;5071601;28;20056;-45
2023/04/11 06:16:28;;;;;;;21.58;11.48;;;;;;;10.80;78.78;101064.31;5071506;28;20107;-46
2023/04/11 06:18:53;;;;;;;21.85;11.98;;;;;;;10.60;78.84;101049.69;5071585;28;20638;-46
2023/04/11 06:21:18;;;;;;;23.38;12.30;;;;;;;10.47;78.80;101053.22;5071418;28;20028;-47
2023/04/11 06:23:44;;;;;;;21.63;11.27;;;;;;;10.27;80.43;101038.56;5070421;28;20121;-43
2023/04/11 06:26:09;;;;;;;23.77;11.63;;;;;;;10.35;80.71;101061.91;5069897;28;20040;-44
2023/04/11 06:28:34;;;;;;;21.13;11.05;;;;;;;10.31;80.26;101064.47;5070189;28;20109;-44
2023/04/11 06:31:00;;;;;;;21.15;11.80;;;;;;;10.25;79.52;101069.25;5069439;28;20126;-44
2023/04/11 06:33:25;;;;;;;20.80;11.73;;;;;;;10.21;79.80;101068.22;5072849;28;20028;-43
2023/04/11 06:35:51;;;;;;;23.05;12.07;;;;;;;10.18;79.91;101065.22;5087294;28;20396;-46
2023/04/11 06:38:16;;;;;;;23.48;12.27;;;;;;;10.08;79.84;101072.53;5087538;28;20043;-44
2023/04/11 06:40:41;;;;;;;21.38;12.07;;;;;;;10.07;80.66;101070.91;5086816;28;20031;-43
2023/04/11 06:43:07;;;;;;;20.55;12.32;;;;;;;10.03;80.48;101064.31;5088420;28;20605;-43
2023/04/11 06:45:32;;;;;;;22.10;12.13;;;;;;;10.06;81.07;101069.25;5091836;28;20036;-43
2023/04/11 06:47:57;;;;;;;21.75;12.60;;;;;;;10.05;79.70;101070.38;5093434;28;20487;-46
2023/04/11 06:50:22;;;;;;;19.52;11.88;;;;;;;10.01;80.30;101068.50;5093457;28;20032;-42
2023/04/11 06:52:48;;;;;;;21.45;12.00;;;;;;;10.03;79.94;101074.56;5091929;28;20358;-42
2023/04/11 06:55:14;;;;;;;25.40;12.48;;;;;;;10.06;80.87;101077.53;5093215;28;20090;-45
2023/04/11 06:57:40;;;;;;;22.60;11.90;;;;;;;10.08;80.12;101077.22;5093269;28;20024;-43
2023/04/11 07:00:07;;;;;;;23.00;11.80;;;;;;;10.09;80.21;101076.97;5091711;28;20032;-43
2023/04/11 07:02:35;;;;;;;20.38;11.90;;;;;;;10.10;79.23;101083.28;5093109;28;20030;-46
2023/04/11 07:05:01;;;;;;;21.73;11.60;;;;;;;10.18;79.09;101079.06;5092842;28;20761;-47
2023/04/11 07:07:26;;;;;;;20.60;11.77;;;;;;;10.18;79.21;101079.06;5093225;28;20056;-43
2023/04/11 07:09:52;;;;;;;22.20;11.85;;;;;;;10.22;78.83;101080.91;5092994;28;20081;-47
2023/04/11 07:12:17;;;;;;;23.02;12.10;;;;;;;10.18;78.11;101079.06;5091788;28;20060;-47
2023/04/11 07:14:42;;;;;;;19.55;11.90;;;;;;;10.29;78.02;101091.63;5091557;28;20020;-44
2023/04/11 07:17:08;;;;;;;23.70;12.00;;;;;;;10.36;78.01;101094.00;5092705;28;20056;-43
2023/04/11 07:19:33;;;;;;;23.48;11.95;;;;;;;10.38;77.86;101094.56;5090810;28;20072;-43
2023/04/11 07:21:59;;;;;;;23.30;11.60;;;;;;;10.43;77.75;101103.59;5092933;28;20027;-45
2023/04/11 07:24:24;;;;;;;21.88;11.98;;;;;;;10.41;77.08;101111.38;5093200;28;20093;-44
2023/04/11 07:26:52;;;;;;;21.17;11.20;;;;;;;10.51;77.11;101110.41;5092284;28;20024;-43
2023/04/11 07:29:17;;;;;;;21.48;11.50;;;;;;;10.56;76.27;101107.56;5092617;28;20181;-47
2023/04/11 07:31:43;;;;;;;21.90;11.77;;;;;;;10.58;75.94;101113.63;5092415;28;20393;-45
2023/04/11 07:34:09;;;;;;;21.60;11.20;;;;;;;10.61;76.77;101118.56;5092283;28;20032;-43
2023/04/11 07:36:34;;;;;;;21.75;11.38;;;;;;;10.63;76.41;101109.16;5092278;28;20032;-44
2023/04/11 07:39:00;;;;;;;23.40;11.35;;;;;;;10.74;75.13;101116.13;5091980;28;20059;-43
2023/04/11 07:41:25;;;;;;;22.77;11.75;;;;;;;10.74;74.18;101116.13;5092097;28;20469;-43
2023/04/11 07:43:50;;;;;;;22.60;11.80;;;;;;;10.76;75.23;101113.91;5092100;28;20391;-43
2023/04/11 07:46:16;;;;;;;18.38;11.57;;;;;;;10.82;74.90;101134.03;5092138;28;20407;-43
2023/04/11 07:48:41;;;;;;;23.63;11.27;;;;;;;10.89;74.51;101132.53;5092098;28;20036;-42
2023/04/11 07:51:07;;;;;;;21.73;11.80;;;;;;;11.03;74.06;101134.50;5090535;28;20491;-48
2023/04/11 07:53:32;;;;;;;20.58;11.32;;;;;;;11.06;73.00;101134.72;5073659;28;20032;-43
2023/04/11 07:55:58;;;;;;;22.08;11.75;;;;;;;11.03;73.98;101121.50;5091122;28;20028;-45
2023/04/11 07:58:23;;;;;;;21.73;11.40;;;;;;;10.99;72.59;101120.44;5092158;28;20042;-44
2023/04/11 08:00:49;;;;;;;22.13;11.82;;;;;;;10.95;72.29;101133.28;5091700;28;20032;-43
2023/04/11 08:03:15;;;;;;;20.88;11.60;;;;;;;10.97;71.80;101130.19;5091971;28;20070;-42
2023/04/11 08:05:40;;;;;;;18.25;10.95;;;;;;;11.00;72.18;101141.47;5091766;28;20027;-44
2023/04/11 08:08:06;;;;;;;20.17;10.60;;;;;;;11.01;70.65;101148.66;5091770;28;20027;-43
2023/04/11 08:10:32;;;;;;;22.80;10.88;;;;;;;11.03;71.00;101154.72;5091754;28;20036;-44
2023/04/11 08:12:58;;;;;;;20.92;11.23;;;;;;;10.99;68.49;101156.44;5091617;28;20081;-42
2023/04/11 08:15:23;;;;;;;18.35;10.70;;;;;;;11.01;69.58;101154.19;5091599;28;20111;-43
2023/04/11 08:17:50;;;;;;;22.35;10.60;;;;;;;11.08;69.46;101157.41;5091720;28;20496;-43
2023/04/11 08:20:16;;;;;;;21.00;10.40;;;;;;;11.07;68.49;101163.25;5091635;28;20077;-43
2023/04/11 08:22:43;;;;;;;20.15;10.55;;;;;;;11.10;69.15;101153.50;5091781;28;20035;-43
2023/04/11 08:25:10;;;;;;;19.55;10.73;;;;;;;11.15;68.23;101147.88;5091667;28;20039;-43
2023/04/11 08:27:36;;;;;;;20.77;11.60;;;;;;;11.19;67.45;101166.34;5091628;28;20047;-43
2023/04/11 08:30:03;;;;;;;21.77;10.57;;;;;;;11.21;67.45;101166.88;5091330;28;20032;-43
2023/04/11 08:32:28;;;;;;;19.38;10.80;;;;;;;11.24;67.17;101174.59;5091364;28;20032;-43
2023/04/11 08:34:53;;;;;;;24.70;10.70;;;;;;;11.32;67.51;101183.31;5091386;28;20376;-42
2023/04/11 08:37:18;;;;;;;20.30;11.40;;;;;;;11.30;66.58;101174.47;5091366;28;20036;-44
2023/04/11 08:39:44;;;;;;;20.20;11.05;;;;;;;11.33;66.86;101180.25;5091470;28;20098;-43
2023/04/11 08:42:29;;;;;;;20.80;10.40;;;;;;;11.33;66.09;101174.72;5091530;28;20109;-44
2023/04/11 08:44:56;;;;;;;19.58;10.70;;;;;;;11.33;66.78;101179.44;5089184;28;20058;-43
2023/04/11 08:47:22;;;;;;;20.98;10.77;;;;;;;11.37;65.62;101184.06;5090761;28;20028;-42
2023/04/11 08:49:49;;;;;;;20.17;10.90;;;;;;;11.39;64.13;101181.81;5090322;28;20030;-42
2023/04/11 08:52:15;;;;;;;22.33;10.48;;;;;;;11.39;65.33;101183.75;5089647;28;20028;-44
2023/04/11 08:54:40;;;;;;;19.80;10.80;;;;;;;11.43;65.22;101189.53;5090607;28;20123;-42
2023/04/11 08:57:06;;;;;;;19.83;10.75;;;;;;;11.48;65.22;101186.66;5090686;28;20119;-44
2023/04/11 08:59:34;;;;;;;21.00;10.73;;;;;;;11.47;64.75;101180.31;5090772;28;20099;-43
2023/04/11 09:02:07;;;;;;;20.70;10.30;;;;;;;11.43;63.94;101181.22;5091098;28;20031;-42
2023/04/11 09:04:40;;;;;;;20.23;11.30;;;;;;;11.47;64.80;101185.00;5090831;28;20042;-44
2023/04/11 09:07:06;;;;;;;22.65;11.40;;;;;;;11.51;64.69;101174.97;5090903;28;20036;-43
2023/04/11 09:09:31;;;;;;;21.00;11.00;;;;;;;11.58;63.72;101171.78;5090719;28;20392;-43
2023/04/11 09:11:57;;;;;;;18.80;10.35;;;;;;;11.63;62.99;101169.75;5091358;28;20043;-44
2023/04/11 09:14:24;;;;;;;20.65;10.48;;;;;;;11.66;62.60;101163.59;5090831;28;20020;-44
2023/04/11 09:16:56;;;;;;;19.42;10.80;;;;;;;11.78;61.94;101170.59;5090822;28;20506;-44
2023/04/11 09:19:23;;;;;;;19.65;10.80;;;;;;;11.83;60.77;101190.72;5090377;28;20103;-44
2023/04/11 09:21:49;;;;;;;18.98;11.02;;;;;;;11.90;61.47;101182.00;5090287;28;20020;-44
2023/04/11 09:24:15;;;;;;;20.75;11.00;;;;;;;11.93;59.06;101199.97;5090231;28;20054;-44
2023/04/11 09:26:41;;;;;;;20.75;10.65;;;;;;;11.91;60.30;101180.84;5090537;28;20054;-44
2023/04/11 09:29:06;;;;;;;20.75;11.20;;;;;;;11.93;59.55;101189.69;5090552;28;20477;-43
2023/04/11 09:31:43;;;;;;;19.13;10.52;;;;;;;11.90;59.14;101178.41;5090787;28;20553;-44
2023/04/11 09:34:08;;;;;;;19.52;11.13;;;;;;;11.92;56.46;101187.25;5089047;28;20028;-44
2023/04/11 09:36:34;;;;;;;17.63;10.20;;;;;;;11.87;56.86;101190.94;5089005;28;20016;-43
2023/04/11 09:39:13;;;;;;;17.20;9.80;;;;;;;11.88;55.41;101198.13;5090299;28;20105;-42
2023/04/11 09:41:39;;;;;;;18.98;10.60;;;;;;;11.90;55.83;101203.34;5090812;28;20459;-45
2023/04/11 09:44:05;;;;;;;19.27;10.57;;;;;;;11.95;56.94;101198.53;5090052;28;20111;-44
2023/04/11 09:46:30;;;;;;;18.75;10.10;;;;;;;12.01;57.13;101200.09;5088625;28;20089;-42
2023/04/11 09:48:56;;;;;;;18.02;10.27;;;;;;;12.04;56.29;101195.06;5090039;28;20032;-42
2023/04/11 09:51:21;;;;;;;20.10;11.00;;;;;;;12.04;56.39;101200.63;5088842;28;20038;-42
2023/04/11 09:53:48;;;;;;;18.85;10.80;;;;;;;12.06;56.69;101201.94;5090248;28;20028;-43
2023/04/11 09:56:13;;;;;;;19.40;10.40;;;;;;;12.09;55.60;101208.84;5090324;28;20043;-43
2023/04/11 09:58:40;;;;;;;20.88;11.25;;;;;;;12.13;55.38;101207.09;5090139;28;20032;-44
2023/04/11 10:01:08;;;;;;;19.33;10.65;;;;;;;12.23;55.99;101201.34;5090733;28;20035;-44
2023/04/11 10:03:38;;;;;;;18.50;10.50;;;;;;;12.29;55.85;101208.41;5090656;28;20039;-43
2023/04/11 10:06:11;;;;;;;18.45;10.70;;;;;;;12.22;56.31;101176.69;5090343;28;20028;-44
2023/04/11 10:08:38;;;;;;;19.05;10.88;;;;;;;12.37;55.26;101184.69;5090018;28;20157;-43
2023/04/11 10:11:07;;;;;;;23.02;10.77;;;;;;;12.43;54.86;101199.28;5089949;28;20028;-44
2023/04/11 10:13:36;;;;;;;20.77;10.25;;;;;;;12.46;56.61;101215.31;5090027;28;20024;-44
2023/04/11 10:16:15;;;;;;;19.52;10.15;;;;;;;12.36;56.43;101212.75;5090218;28;20039;-44
2023/04/11 10:18:52;;;;;;;19.05;10.20;;;;;;;12.25;57.57;101214.91;5085688;28;20050;-43
2023/04/11 10:21:45;;;;;;;21.00;10.65;;;;;;;12.22;58.85;101224.66;5094023;28;20027;-44
2023/04/11 10:24:28;;;;;;;21.95;11.07;;;;;;;12.16;57.57;101215.63;5091002;28;20106;-44
2023/04/11 10:26:54;;;;;;;21.70;10.38;;;;;;;12.22;58.34;101218.31;5093831;28;20091;-44
2023/04/11 10:29:30;;;;;;;20.70;10.98;;;;;;;12.22;58.77;101209.97;5093668;28;20078;-44
2023/04/11 10:32:07;;;;;;;20.08;10.88;;;;;;;12.19;59.17;101214.16;5089100;28;20032;-44
2023/04/11 10:34:37;;;;;;;20.17;10.82;;;;;;;12.20;60.00;101220.56;5093597;28;20107;-45
2023/04/11 10:37:09;;;;;;;19.08;11.00;;;;;;;12.13;56.97;101219.03;5093599;28;20103;-44
2023/04/11 10:39:50;;;;;;;18.08;10.82;;;;;;;12.13;57.99;101216.25;5093072;28;20493;-46
2023/04/11 10:42:28;;;;;;;19.95;11.30;;;;;;;12.06;57.69;101220.56;5093306;28;20032;-45
2023/04/11 10:45:16;;;;;;;20.77;10.00;;;;;;;12.04;56.94;101209.78;5093442;28;20040;-44
2023/04/11 10:47:42;;;;;;;17.55;9.88;;;;;;;11.95;55.22;101215.16;5092338;28;20052;-44
2023/04/11 10:50:26;;;;;;;19.48;10.10;;;;;;;11.98;56.95;101236.78;5090960;28;20028;-46
2023/04/11 10:52:56;;;;;;;21.30;10.70;;;;;;;11.94;56.03;101218.25;5089982;28;20345;-44
2023/04/11 10:55:22;;;;;;;17.98;9.93;;;;;;;11.94;56.69;101221.03;5091430;28;20567;-45
2023/04/11 10:58:12;;;;;;;19.88;11.23;;;;;;;11.93;56.39;101216.63;5091195;28;20032;-43
2023/04/11 11:00:53;;;;;;;18.92;11.02;;;;;;;12.00;56.78;101214.28;5091430;28;20012;-43
2023/04/11 11:03:22;;;;;;;20.65;10.77;;;;;;;12.14;56.52;101225.38;5092150;28;20028;-44
2023/04/11 11:06:00;;;;;;;18.80;11.15;;;;;;;12.16;53.96;101209.25;5093281;28;20044;-43
2023/04/11 11:08:31;;;;;;;19.33;10.82;;;;;;;12.29;50.84;101225.06;5093178;28;20425;-43
2023/04/11 11:11:00;;;;;;;19.17;10.85;;;;;;;12.36;51.58;101209.97;5093157;28;20116;-43